Azalea Park, Florida
Current Conditions -  °F | °C
As of 11:53 PM on Friday 24 Oct 2014 (Local Time) from KORL Reporting Station
Scattered Clouds Scattered Clouds  
Wind Chill: 68°   Ceiling: Unl
Heat Index: 68°   Visibility: 10mi
Dew Point: 58°   Wind: 8mph
Humidity: 70%   Direction: 340°NNW
Pressure: 29.98"   Gusts: NA
Location:  28.5525°N, 81.3003°W
Report Text: KORL 250353Z AUTO 34007KT 10SM SCT046 20/14 A2998 RMK AO2 SLP155 T02000144
Loading
Personal Weather Stations






























Interactive Weather Map New forecast layout! Learn more

10-Day Weather Forecast

Advertisements
Track Severe Weather on mobile